Manakin Sabot, Virginia
Current Conditions -  °F | °C
As of 6:54 PM on Sunday 25 Jan 2015 (Local Time) from KOFP Reporting Station
Clear Clear  
Wind Chill:   Ceiling: Unl
Heat Index:   Visibility: 10mi
Dew Point:   Wind: 0mph
Humidity: 82%   Direction: NA
Pressure: 29.85"   Gusts: NA
Location:  37.65°N, 77.72°W
Report Text: KOFP 252354Z AUTO 00000KT 10SM CLR 04/01 A2985 RMK AO2 SLP110 T00390011 10111 20039 53004
Loading
Personal Weather Stations






























Interactive Weather Map New forecast layout! Learn more

10-Day Weather Forecast

Advertisements
Track Severe Weather on mobile